Time;durP1;ratioP1;P1;durP2;ratioP2;P2;SDS_P1;SDS_P2;PMS_P1;PMS_P2;Temp;Humidity;BMP_temperature;BMP_pressure;BME280_temperature;BME280_humidity;BME280_pressure;Samples;Min_cycle;Max_cycle;Signal;HPM_P1;HPM_P2
2021/12/24 00:02:24;;;;;;;;;;;21.00;50.00;;;;;;5044455;28;19932;-68
2021/12/24 00:04:49;;;;;;;;;;;21.00;50.50;;;;;;5044076;28;19912;-66
2021/12/24 00:07:15;;;;;;;;;;;20.90;50.00;;;;;;5041596;28;19925;-68
2021/12/24 00:09:40;;;;;;;;;;;20.90;49.90;;;;;;5044309;28;19973;-68
2021/12/24 00:12:13;;;;;;;;;;;20.90;49.90;;;;;;5047129;28;19913;-68
2021/12/24 00:14:43;;;;;;;;;;;20.90;50.00;;;;;;5043189;28;19913;-68
2021/12/24 00:17:09;;;;;;;;;;;20.90;50.00;;;;;;5046946;28;19912;-66
2021/12/24 00:19:45;;;;;;;;;;;20.90;50.00;;;;;;5047086;28;19916;-68
2021/12/24 00:35:40;;;;;;;;;;;20.90;50.10;;;;;;5042335;28;19919;-66
2021/12/24 00:38:07;;;;;;;;;;;20.90;50.10;;;;;;5044905;28;20654;-66
2021/12/24 00:40:35;;;;;;;;;;;20.80;50.00;;;;;;5044136;28;19919;-66
2021/12/24 00:43:01;;;;;;;;;;;20.80;50.00;;;;;;5046286;28;19917;-66
2021/12/24 00:45:28;;;;;;;;;;;20.80;50.00;;;;;;5044605;28;19931;-65
2021/12/24 00:47:54;;;;;;;;;;;20.80;50.00;;;;;;5041353;28;19917;-66
2021/12/24 00:50:24;;;;;;;;;;;20.80;50.00;;;;;;5045770;28;19908;-68
2021/12/24 00:53:04;;;;;;;;;;;20.80;50.00;;;;;;5040657;28;20024;-66
2021/12/24 00:55:35;;;;;;;;;;;20.80;50.00;;;;;;5042378;28;19922;-66
2021/12/24 00:58:02;;;;;;;;;;;20.80;50.10;;;;;;5042794;28;20598;-66
2021/12/24 01:00:30;;;;;;;;;;;20.80;50.10;;;;;;5042610;28;19919;-66
2021/12/24 01:02:59;;;;;;;;;;;20.80;50.10;;;;;;5045180;28;19909;-65
2021/12/24 01:05:26;;;;;;;;;;;20.80;50.10;;;;;;5043265;28;19938;-66
2021/12/24 01:07:52;;;;;;;;;;;20.70;50.00;;;;;;5042133;28;19920;-66
2021/12/24 01:10:20;;;;;;;;;;;20.80;50.10;;;;;;5044545;28;19915;-66
2021/12/24 01:12:46;;;;;;;;;;;20.70;50.10;;;;;;5043654;28;19913;-68
2021/12/24 01:15:13;;;;;;;;;;;20.70;50.00;;;;;;5043122;28;19923;-67
2021/12/24 01:20:32;;;;;;;;;;;20.70;50.10;;;;;;5043728;28;19908;-66
2021/12/24 01:25:52;;;;;;;;;;;20.70;50.10;;;;;;5043306;28;19951;-66
2021/12/24 01:39:26;;;;;;;;;;;20.70;50.10;;;;;;5043988;28;19920;-65
2021/12/24 01:44:37;;;;;;;;;;;20.60;50.10;;;;;;5043329;28;20398;-66
2021/12/24 01:47:05;;;;;;;;;;;20.60;50.10;;;;;;5044224;28;19963;-66
2021/12/24 01:49:31;;;;;;;;;;;20.60;50.10;;;;;;5043373;28;20034;-66
2021/12/24 01:52:02;;;;;;;;;;;20.60;50.10;;;;;;5040851;28;20629;-65
2021/12/24 01:54:27;;;;;;;;;;;20.60;50.10;;;;;;5045891;28;19912;-67
2021/12/24 01:56:53;;;;;;;;;;;20.60;50.10;;;;;;5040955;28;20218;-68
2021/12/24 01:59:19;;;;;;;;;;;20.60;50.10;;;;;;5037476;28;19913;-68
2021/12/24 02:01:45;;;;;;;;;;;20.60;50.20;;;;;;5045039;28;19920;-66
2021/12/24 02:04:14;;;;;;;;;;;20.60;50.20;;;;;;5042852;28;19936;-66
2021/12/24 02:06:40;;;;;;;;;;;20.60;50.20;;;;;;5039788;28;20546;-68
2021/12/24 02:09:09;;;;;;;;;;;20.50;50.10;;;;;;5044630;28;19952;-67
2021/12/24 02:11:38;;;;;;;;;;;20.50;50.20;;;;;;5045787;28;19915;-68
2021/12/24 02:14:15;;;;;;;;;;;20.60;50.20;;;;;;5038536;28;19916;-67
2021/12/24 02:17:19;;;;;;;;;;;20.50;50.20;;;;;;5042866;28;19912;-66
2021/12/24 02:30:38;;;;;;;;;;;20.50;50.20;;;;;;5041011;28;19924;-66
2021/12/24 02:33:04;;;;;;;;;;;20.50;50.20;;;;;;5043404;28;19905;-67
2021/12/24 02:35:30;;;;;;;;;;;20.50;50.20;;;;;;5042180;28;20262;-68
2021/12/24 02:37:57;;;;;;;;;;;20.40;50.20;;;;;;5042563;28;20351;-68
2021/12/24 02:40:22;;;;;;;;;;;20.50;50.20;;;;;;5044576;28;20564;-68
2021/12/24 02:42:52;;;;;;;;;;;20.40;50.20;;;;;;5042299;28;19909;-66
2021/12/24 02:45:18;;;;;;;;;;;20.50;50.30;;;;;;5042038;28;19936;-68
2021/12/24 02:48:09;;;;;;;;;;;20.40;50.20;;;;;;5038875;28;19909;-66
2021/12/24 02:56:00;;;;;;;;;;;20.40;50.20;;;;;;5038584;28;19939;-66
2021/12/24 02:58:25;;;;;;;;;;;20.40;50.20;;;;;;5043458;28;19917;-65
2021/12/24 03:00:51;;;;;;;;;;;20.40;50.20;;;;;;5041461;28;20000;-68
2021/12/24 03:03:17;;;;;;;;;;;20.40;50.20;;;;;;5044486;28;20004;-66
2021/12/24 03:05:42;;;;;;;;;;;20.40;50.30;;;;;;5042591;28;19920;-68
2021/12/24 03:08:08;;;;;;;;;;;20.40;50.30;;;;;;5044040;28;20288;-66
2021/12/24 03:10:35;;;;;;;;;;;20.40;50.30;;;;;;5047329;28;19916;-66
2021/12/24 03:13:01;;;;;;;;;;;20.40;50.30;;;;;;5049080;28;20064;-66
2021/12/24 03:15:27;;;;;;;;;;;20.40;50.30;;;;;;5043440;28;19917;-65
2021/12/24 03:17:59;;;;;;;;;;;20.40;50.30;;;;;;5046656;28;19913;-66
2021/12/24 03:20:24;;;;;;;;;;;20.40;50.30;;;;;;5047515;28;20340;-66
2021/12/24 03:25:16;;;;;;;;;;;20.40;50.30;;;;;;5047884;28;19966;-66
2021/12/24 03:27:42;;;;;;;;;;;20.40;50.30;;;;;;5047763;28;19921;-68
2021/12/24 03:30:08;;;;;;;;;;;20.30;50.30;;;;;;5046817;28;20018;-66
2021/12/24 03:32:34;;;;;;;;;;;20.30;50.30;;;;;;5047087;28;19916;-66
2021/12/24 03:35:00;;;;;;;;;;;20.30;50.30;;;;;;5046888;28;20307;-67
2021/12/24 03:37:25;;;;;;;;;;;20.30;50.30;;;;;;5045702;28;19912;-65
2021/12/24 03:39:51;;;;;;;;;;;20.30;50.30;;;;;;5047283;28;20068;-68
2021/12/24 03:42:16;;;;;;;;;;;20.30;50.30;;;;;;5047607;28;19978;-65
2021/12/24 03:44:46;;;;;;;;;;;20.30;50.30;;;;;;5045569;28;19913;-66
2021/12/24 03:47:17;;;;;;;;;;;20.30;50.30;;;;;;5048030;28;19971;-65
2021/12/24 03:54:56;;;;;;;;;;;20.30;50.40;;;;;;5044757;28;20016;-68
2021/12/24 03:57:30;;;;;;;;;;;20.30;50.30;;;;;;5046759;28;19912;-66
2021/12/24 03:59:57;;;;;;;;;;;20.30;50.40;;;;;;5046248;28;19913;-66
2021/12/24 04:02:23;;;;;;;;;;;20.30;50.40;;;;;;5044798;28;19920;-68
2021/12/24 04:04:49;;;;;;;;;;;20.30;50.40;;;;;;5045644;28;20661;-68
2021/12/24 04:07:15;;;;;;;;;;;20.20;50.30;;;;;;5043689;28;20506;-66
2021/12/24 04:09:54;;;;;;;;;;;20.20;50.30;;;;;;5045674;28;19917;-67
2021/12/24 04:12:19;;;;;;;;;;;20.20;50.30;;;;;;5046222;28;19974;-66
2021/12/24 04:14:45;;;;;;;;;;;20.20;50.30;;;;;;5045396;28;19908;-66
2021/12/24 04:17:10;;;;;;;;;;;20.20;50.40;;;;;;5047024;28;19916;-67
2021/12/24 04:24:51;;;;;;;;;;;20.20;50.40;;;;;;5047857;28;19975;-68
2021/12/24 04:25:06;;;;;;;;;;;20.20;50.40;;;;;;5045383;28;20011;-66
2021/12/24 04:27:31;;;;;;;;;;;20.20;50.40;;;;;;5042606;28;20015;-65
2021/12/24 04:30:06;;;;;;;;;;;20.20;50.40;;;;;;5041271;28;19913;-67
2021/12/24 04:35:19;;;;;;;;;;;20.10;50.30;;;;;;5042945;28;19966;-66
2021/12/24 04:51:19;;;;;;;;;;;20.10;50.40;;;;;;5043609;28;19987;-66
2021/12/24 05:04:56;;;;;;;;;;;20.10;50.50;;;;;;5042125;28;19919;-67
2021/12/24 05:10:06;;;;;;;;;;;20.10;50.50;;;;;;5043265;28;20054;-65
2021/12/24 05:12:34;;;;;;;;;;;20.10;50.50;;;;;;5044202;28;19924;-68
2021/12/24 05:15:00;;;;;;;;;;;20.10;50.50;;;;;;5043335;28;19920;-67
2021/12/24 05:17:47;;;;;;;;;;;20.10;50.50;;;;;;5039137;28;19982;-66
2021/12/24 05:22:56;;;;;;;;;;;20.10;50.50;;;;;;5039467;28;20364;-66
2021/12/24 05:25:21;;;;;;;;;;;20.00;50.40;;;;;;5042707;28;20008;-68
2021/12/24 05:27:47;;;;;;;;;;;20.00;50.50;;;;;;5045047;28;20363;-67
2021/12/24 05:30:13;;;;;;;;;;;20.00;50.50;;;;;;5040524;28;19909;-66
2021/12/24 05:32:38;;;;;;;;;;;20.00;50.50;;;;;;5043679;28;19916;-65
2021/12/24 05:35:04;;;;;;;;;;;20.00;50.50;;;;;;5043568;28;19913;-68
2021/12/24 05:37:30;;;;;;;;;;;20.00;50.50;;;;;;5041258;28;19912;-68
2021/12/24 05:39:55;;;;;;;;;;;20.00;50.50;;;;;;5039807;28;19912;-65
2021/12/24 05:42:23;;;;;;;;;;;20.00;50.50;;;;;;5038951;28;19990;-66
2021/12/24 05:44:49;;;;;;;;;;;20.00;50.50;;;;;;5044713;28;19912;-65
2021/12/24 05:47:15;;;;;;;;;;;20.00;50.50;;;;;;5041113;28;19973;-67
2021/12/24 05:49:41;;;;;;;;;;;20.00;50.50;;;;;;5043139;28;19913;-66
2021/12/24 05:52:07;;;;;;;;;;;20.00;50.50;;;;;;5039364;28;20000;-68
2021/12/24 05:54:33;;;;;;;;;;;20.00;50.50;;;;;;5046233;28;19992;-67
2021/12/24 05:56:58;;;;;;;;;;;20.00;50.50;;;;;;5044081;28;19909;-65
2021/12/24 05:59:24;;;;;;;;;;;20.00;50.50;;;;;;5041227;28;19920;-66
2021/12/24 06:01:49;;;;;;;;;;;20.00;50.60;;;;;;5042184;28;20034;-66
2021/12/24 06:04:15;;;;;;;;;;;20.00;50.50;;;;;;5041252;28;19967;-65
2021/12/24 06:06:40;;;;;;;;;;;20.00;50.50;;;;;;5038507;28;20345;-67
2021/12/24 06:09:06;;;;;;;;;;;19.90;50.50;;;;;;5044732;28;19924;-66
2021/12/24 06:11:31;;;;;;;;;;;20.00;50.60;;;;;;5043731;28;19908;-66
2021/12/24 06:13:57;;;;;;;;;;;20.00;50.60;;;;;;5041532;28;19947;-66
2021/12/24 06:16:22;;;;;;;;;;;19.90;50.50;;;;;;5044528;28;19999;-66
2021/12/24 06:18:48;;;;;;;;;;;19.90;50.50;;;;;;5045648;28;20027;-68
2021/12/24 06:21:14;;;;;;;;;;;19.90;50.60;;;;;;5035824;28;19912;-67
2021/12/24 06:23:40;;;;;;;;;;;19.90;50.50;;;;;;5039507;28;20588;-66
2021/12/24 06:26:07;;;;;;;;;;;19.90;50.50;;;;;;5041668;28;19984;-66
2021/12/24 06:28:33;;;;;;;;;;;19.90;50.50;;;;;;5043770;28;20236;-68
2021/12/24 06:30:58;;;;;;;;;;;19.90;50.20;;;;;;5038756;28;19932;-65
2021/12/24 06:33:24;;;;;;;;;;;19.90;50.60;;;;;;5041076;28;19959;-65
2021/12/24 06:35:52;;;;;;;;;;;19.90;50.60;;;;;;5040962;28;20531;-67
2021/12/24 06:38:18;;;;;;;;;;;19.90;51.50;;;;;;5039895;28;19920;-66
2021/12/24 06:40:43;;;;;;;;;;;19.90;52.10;;;;;;5041382;28;20375;-66
2021/12/24 06:43:09;;;;;;;;;;;19.90;52.40;;;;;;5043799;28;20310;-65
2021/12/24 06:45:34;;;;;;;;;;;19.90;52.80;;;;;;5045574;28;19912;-66
2021/12/24 06:48:01;;;;;;;;;;;19.90;52.90;;;;;;5039323;28;19990;-66
2021/12/24 06:50:26;;;;;;;;;;;20.00;52.90;;;;;;5044409;28;19909;-66
2021/12/24 06:52:52;;;;;;;;;;;19.90;52.90;;;;;;5039941;28;19939;-68
2021/12/24 06:55:18;;;;;;;;;;;19.90;52.90;;;;;;5042658;28;19958;-66
2021/12/24 06:57:44;;;;;;;;;;;19.90;52.80;;;;;;5049496;28;19909;-68
2021/12/24 07:00:15;;;;;;;;;;;19.90;52.80;;;;;;5045407;28;19916;-66
2021/12/24 07:02:40;;;;;;;;;;;19.90;53.00;;;;;;5042761;28;19975;-66
2021/12/24 07:05:06;;;;;;;;;;;20.00;53.40;;;;;;5040281;28;19965;-68
2021/12/24 07:07:32;;;;;;;;;;;20.00;53.40;;;;;;5036800;28;19916;-66
2021/12/24 07:09:57;;;;;;;;;;;20.00;53.30;;;;;;5044858;28;19970;-67
2021/12/24 07:12:23;;;;;;;;;;;19.90;53.30;;;;;;5039342;28;19962;-66
2021/12/24 07:14:49;;;;;;;;;;;20.00;53.40;;;;;;5041496;28;19916;-66
2021/12/24 07:17:15;;;;;;;;;;;20.00;53.40;;;;;;5035925;28;21637;-66
2021/12/24 07:19:41;;;;;;;;;;;20.00;53.50;;;;;;5042820;28;19916;-66
2021/12/24 07:22:07;;;;;;;;;;;20.00;53.60;;;;;;5036722;28;19996;-66
2021/12/24 07:24:33;;;;;;;;;;;20.00;53.60;;;;;;5038237;28;19929;-68
2021/12/24 07:27:01;;;;;;;;;;;20.00;53.60;;;;;;5034814;28;19923;-67
2021/12/24 07:29:26;;;;;;;;;;;20.00;53.60;;;;;;5044317;28;19918;-66
2021/12/24 07:31:52;;;;;;;;;;;20.00;53.60;;;;;;5041927;28;20377;-67
2021/12/24 07:34:18;;;;;;;;;;;20.00;53.70;;;;;;5044612;28;19919;-66
2021/12/24 07:36:43;;;;;;;;;;;20.00;53.70;;;;;;5037473;28;20218;-68
2021/12/24 07:39:08;;;;;;;;;;;20.00;53.80;;;;;;5044422;28;19997;-68
2021/12/24 07:41:34;;;;;;;;;;;20.00;53.80;;;;;;5034481;28;19924;-68
2021/12/24 07:44:01;;;;;;;;;;;20.00;53.80;;;;;;5036064;28;19987;-67
2021/12/24 07:46:34;;;;;;;;;;;20.00;53.80;;;;;;5038512;28;20281;-66
2021/12/24 07:49:12;;;;;;;;;;;20.10;53.90;;;;;;5040953;28;19921;-66
2021/12/24 07:54:22;;;;;;;;;;;20.00;53.90;;;;;;5036182;28;20407;-66
2021/12/24 07:56:47;;;;;;;;;;;20.00;53.90;;;;;;5035392;28;19913;-67
2021/12/24 07:59:14;;;;;;;;;;;20.00;54.40;;;;;;5037348;28;19913;-66
2021/12/24 08:01:41;;;;;;;;;;;20.10;54.00;;;;;;5036320;28;19920;-68
2021/12/24 08:04:06;;;;;;;;;;;20.10;54.00;;;;;;5035653;28;19913;-65
2021/12/24 08:06:32;;;;;;;;;;;20.10;54.00;;;;;;5032609;28;19923;-66
2021/12/24 08:08:57;;;;;;;;;;;20.10;54.10;;;;;;5041206;28;19916;-66
2021/12/24 08:11:23;;;;;;;;;;;20.10;54.10;;;;;;5040541;28;19920;-66
2021/12/24 08:13:48;;;;;;;;;;;20.10;54.00;;;;;;5038819;28;19916;-67
2021/12/24 08:16:15;;;;;;;;;;;20.10;54.30;;;;;;5040840;28;20366;-65
2021/12/24 08:18:43;;;;;;;;;;;20.10;54.30;;;;;;5043762;28;19960;-66
2021/12/24 08:21:09;;;;;;;;;;;20.10;54.20;;;;;;5035017;28;19909;-67
2021/12/24 08:23:34;;;;;;;;;;;20.10;54.20;;;;;;5039094;28;20356;-68
2021/12/24 08:26:01;;;;;;;;;;;20.10;54.00;;;;;;5043320;28;19908;-67
2021/12/24 08:28:27;;;;;;;;;;;20.10;53.80;;;;;;5037609;28;20419;-65
2021/12/24 08:30:53;;;;;;;;;;;20.10;53.60;;;;;;5037689;28;19952;-68
2021/12/24 08:33:18;;;;;;;;;;;20.10;53.40;;;;;;5041605;28;19995;-66
2021/12/24 08:35:44;;;;;;;;;;;20.10;53.30;;;;;;5035341;28;20015;-67
2021/12/24 08:38:09;;;;;;;;;;;20.10;53.20;;;;;;5033900;28;19917;-67
2021/12/24 08:40:35;;;;;;;;;;;20.10;53.10;;;;;;5039607;28;19954;-65
2021/12/24 08:43:01;;;;;;;;;;;20.10;53.10;;;;;;5038383;28;19909;-68
2021/12/24 08:45:26;;;;;;;;;;;20.00;52.90;;;;;;5037931;28;20020;-67
2021/12/24 08:47:52;;;;;;;;;;;20.00;53.00;;;;;;5035233;28;19969;-67
2021/12/24 08:50:17;;;;;;;;;;;20.00;52.80;;;;;;5040656;28;20282;-66
2021/12/24 08:52:44;;;;;;;;;;;20.00;52.80;;;;;;5038170;28;19915;-66
2021/12/24 08:55:10;;;;;;;;;;;20.00;52.80;;;;;;5042951;28;20019;-67
2021/12/24 08:57:37;;;;;;;;;;;20.00;52.70;;;;;;5039197;28;19912;-67
2021/12/24 09:00:04;;;;;;;;;;;20.00;52.80;;;;;;5033887;28;19928;-67
2021/12/24 09:02:29;;;;;;;;;;;20.00;52.60;;;;;;5040478;28;19916;-68
2021/12/24 09:04:55;;;;;;;;;;;20.00;52.60;;;;;;5036269;28;19917;-68
2021/12/24 09:07:20;;;;;;;;;;;20.00;52.60;;;;;;5036190;28;19916;-67
2021/12/24 09:09:46;;;;;;;;;;;20.00;52.60;;;;;;5044910;28;20005;-68
2021/12/24 09:12:11;;;;;;;;;;;20.00;52.60;;;;;;5040561;28;20438;-67
2021/12/24 09:14:37;;;;;;;;;;;20.00;52.50;;;;;;5034203;28;20039;-67
2021/12/24 09:17:03;;;;;;;;;;;20.00;52.50;;;;;;5038981;28;19963;-68
2021/12/24 09:19:29;;;;;;;;;;;20.00;52.60;;;;;;5039481;28;19962;-65
2021/12/24 09:21:57;;;;;;;;;;;20.00;52.50;;;;;;5038485;28;20337;-66
2021/12/24 09:24:24;;;;;;;;;;;20.00;52.50;;;;;;5042964;28;19917;-67
2021/12/24 09:26:54;;;;;;;;;;;20.00;52.50;;;;;;5039368;28;19912;-67
2021/12/24 09:29:19;;;;;;;;;;;20.00;52.40;;;;;;5041162;28;19967;-67
2021/12/24 09:31:45;;;;;;;;;;;19.90;52.30;;;;;;5040914;28;19922;-67
2021/12/24 09:34:10;;;;;;;;;;;20.00;52.40;;;;;;5039379;28;19944;-68
2021/12/24 09:36:38;;;;;;;;;;;20.00;52.40;;;;;;5041039;28;19920;-67
2021/12/24 09:39:04;;;;;;;;;;;20.00;52.40;;;;;;5040921;28;19920;-68
2021/12/24 09:41:30;;;;;;;;;;;19.90;52.30;;;;;;5038732;28;19913;-66
2021/12/24 09:43:58;;;;;;;;;;;19.90;52.30;;;;;;5037704;28;19970;-67
2021/12/24 09:46:27;;;;;;;;;;;19.90;52.30;;;;;;5040152;28;20351;-67
2021/12/24 09:48:53;;;;;;;;;;;19.90;52.30;;;;;;5040597;28;19917;-65
2021/12/24 09:51:19;;;;;;;;;;;19.90;52.30;;;;;;5035611;28;19923;-68
2021/12/24 09:53:45;;;;;;;;;;;19.90;52.20;;;;;;5037522;28;19913;-68
2021/12/24 09:56:10;;;;;;;;;;;19.90;52.30;;;;;;5036159;28;19913;-68
2021/12/24 09:58:36;;;;;;;;;;;19.90;52.20;;;;;;5039676;28;19912;-65
2021/12/24 10:01:01;;;;;;;;;;;19.90;52.20;;;;;;5035399;28;20241;-68
2021/12/24 10:03:28;;;;;;;;;;;19.90;52.20;;;;;;5039481;28;20225;-67
2021/12/24 10:05:54;;;;;;;;;;;19.90;52.20;;;;;;5036540;28;19909;-67
2021/12/24 10:08:20;;;;;;;;;;;19.90;52.20;;;;;;5039209;28;19913;-67
2021/12/24 10:10:51;;;;;;;;;;;19.90;52.20;;;;;;5041352;28;19912;-68
2021/12/24 10:13:23;;;;;;;;;;;19.90;52.20;;;;;;5041721;28;19913;-67
2021/12/24 10:15:57;;;;;;;;;;;19.90;52.20;;;;;;5032518;28;21074;-67
2021/12/24 10:18:42;;;;;;;;;;;19.90;52.20;;;;;;5035252;28;19955;-66
2021/12/24 10:21:12;;;;;;;;;;;19.90;52.20;;;;;;5038282;28;20018;-67
2021/12/24 10:23:42;;;;;;;;;;;19.90;52.20;;;;;;5041605;28;19909;-68
2021/12/24 10:26:12;;;;;;;;;;;19.90;52.20;;;;;;5034920;28;19919;-66
2021/12/24 10:28:37;;;;;;;;;;;19.90;52.20;;;;;;5036712;28;20248;-68
2021/12/24 10:31:03;;;;;;;;;;;19.90;52.20;;;;;;5036710;28;19917;-68
2021/12/24 10:33:28;;;;;;;;;;;19.90;52.10;;;;;;5037240;28;20726;-67
2021/12/24 10:36:00;;;;;;;;;;;19.90;52.20;;;;;;5041008;28;19919;-67
2021/12/24 10:38:26;;;;;;;;;;;19.90;52.10;;;;;;5037242;28;19980;-65
2021/12/24 10:40:53;;;;;;;;;;;19.90;52.20;;;;;;5040646;28;19928;-66
2021/12/24 10:43:25;;;;;;;;;;;19.80;52.10;;;;;;5042905;28;19920;-68
2021/12/24 10:46:07;;;;;;;;;;;19.90;52.20;;;;;;5041568;28;19913;-68
2021/12/24 10:48:32;;;;;;;;;;;19.90;52.10;;;;;;5041232;28;20207;-65
2021/12/24 10:51:06;;;;;;;;;;;19.80;52.10;;;;;;5035726;28;19973;-66
2021/12/24 10:53:51;;;;;;;;;;;19.80;52.10;;;;;;5039023;28;20027;-66
2021/12/24 10:56:26;;;;;;;;;;;19.80;52.10;;;;;;5036712;28;20246;-67
2021/12/24 10:58:51;;;;;;;;;;;19.80;52.10;;;;;;5039025;28;19917;-68
2021/12/24 11:01:17;;;;;;;;;;;19.80;52.10;;;;;;5034193;28;20459;-68
2021/12/24 11:03:43;;;;;;;;;;;19.80;52.10;;;;;;5043287;28;19999;-68
2021/12/24 11:06:11;;;;;;;;;;;19.80;52.10;;;;;;5031949;28;20069;-67
2021/12/24 11:08:37;;;;;;;;;;;19.90;52.20;;;;;;5035305;28;19917;-66
2021/12/24 11:11:05;;;;;;;;;;;19.80;52.10;;;;;;5043737;28;20299;-67
2021/12/24 11:13:38;;;;;;;;;;;19.80;52.10;;;;;;5041904;28;20283;-67
2021/12/24 11:16:03;;;;;;;;;;;19.80;52.10;;;;;;5040053;28;19958;-67
2021/12/24 11:18:31;;;;;;;;;;;19.80;52.10;;;;;;5039151;28;19931;-67
2021/12/24 11:21:04;;;;;;;;;;;19.80;52.10;;;;;;5040034;28;20440;-65
2021/12/24 11:23:31;;;;;;;;;;;19.80;52.10;;;;;;5036550;28;19927;-67
2021/12/24 11:25:59;;;;;;;;;;;19.80;52.10;;;;;;5037359;28;20297;-66
2021/12/24 11:28:25;;;;;;;;;;;19.80;52.10;;;;;;5037875;28;19947;-67
2021/12/24 11:30:54;;;;;;;;;;;19.80;52.10;;;;;;5036040;28;20345;-67
2021/12/24 11:33:21;;;;;;;;;;;19.80;52.10;;;;;;5034337;28;20691;-65
2021/12/24 11:35:48;;;;;;;;;;;19.80;52.20;;;;;;5038030;28;19913;-67
2021/12/24 11:38:15;;;;;;;;;;;19.80;52.10;;;;;;5034785;28;20275;-67
2021/12/24 11:40:41;;;;;;;;;;;19.80;52.10;;;;;;5036858;28;19944;-68
2021/12/24 11:43:07;;;;;;;;;;;19.80;52.10;;;;;;5039828;28;20764;-67
2021/12/24 11:45:33;;;;;;;;;;;19.80;52.10;;;;;;5037923;28;19987;-68
2021/12/24 11:48:00;;;;;;;;;;;19.80;52.20;;;;;;5035117;28;20431;-67
2021/12/24 11:50:25;;;;;;;;;;;19.80;52.10;;;;;;5037494;28;19917;-66
2021/12/24 11:52:53;;;;;;;;;;;19.80;52.10;;;;;;5034695;28;21896;-66
2021/12/24 11:55:19;;;;;;;;;;;19.80;52.20;;;;;;5038659;28;19958;-68
2021/12/24 11:57:49;;;;;;;;;;;19.80;52.10;;;;;;5043744;28;19912;-68
2021/12/24 12:00:19;;;;;;;;;;;19.80;52.10;;;;;;5033214;28;20000;-67
2021/12/24 12:02:45;;;;;;;;;;;19.80;52.30;;;;;;5031029;28;19970;-67
2021/12/24 12:05:11;;;;;;;;;;;19.80;52.20;;;;;;5037017;28;19917;-68
2021/12/24 12:07:37;;;;;;;;;;;19.70;52.10;;;;;;5036820;28;19932;-69
2021/12/24 12:10:03;;;;;;;;;;;19.70;52.10;;;;;;5041740;28;19947;-65
2021/12/24 12:12:33;;;;;;;;;;;19.80;52.10;;;;;;5036672;28;20007;-68
2021/12/24 12:15:17;;;;;;;;;;;19.80;52.10;;;;;;5040823;28;20003;-65
2021/12/24 12:17:50;;;;;;;;;;;19.70;52.20;;;;;;5042020;28;19917;-68
2021/12/24 12:20:35;;;;;;;;;;;19.70;52.10;;;;;;5041054;28;19916;-68
2021/12/24 12:23:01;;;;;;;;;;;19.70;52.20;;;;;;5038085;28;19968;-67
2021/12/24 12:25:32;;;;;;;;;;;19.70;52.70;;;;;;5038774;28;19908;-67
2021/12/24 12:27:59;;;;;;;;;;;19.80;52.20;;;;;;5038542;28;19920;-68
2021/12/24 12:30:24;;;;;;;;;;;19.80;52.20;;;;;;5040240;28;20141;-68
2021/12/24 12:32:50;;;;;;;;;;;19.80;52.20;;;;;;5038464;28;20102;-66
2021/12/24 12:35:16;;;;;;;;;;;19.80;52.30;;;;;;5038653;28;19916;-66
2021/12/24 12:37:45;;;;;;;;;;;19.80;52.30;;;;;;5035549;28;20687;-68
2021/12/24 12:40:16;;;;;;;;;;;19.80;52.30;;;;;;5039345;28;19912;-65
2021/12/24 12:42:48;;;;;;;;;;;19.80;52.20;;;;;;5037511;28;19939;-67
2021/12/24 12:45:13;;;;;;;;;;;19.80;52.20;;;;;;5040126;28;20339;-68
2021/12/24 12:47:50;;;;;;;;;;;19.80;52.30;;;;;;5040907;28;19967;-65
2021/12/24 12:50:17;;;;;;;;;;;19.80;52.30;;;;;;5041116;28;20395;-66
2021/12/24 12:52:42;;;;;;;;;;;19.80;52.20;;;;;;5040132;28;19923;-66
2021/12/24 12:55:27;;;;;;;;;;;19.80;52.20;;;;;;5038394;28;21795;-68
2021/12/24 12:57:52;;;;;;;;;;;19.80;52.30;;;;;;5035172;28;19916;-69
2021/12/24 13:00:19;;;;;;;;;;;19.70;52.20;;;;;;5034889;28;19940;-68
2021/12/24 13:02:57;;;;;;;;;;;19.70;52.20;;;;;;5036626;28;19996;-67
2021/12/24 13:05:26;;;;;;;;;;;19.70;52.20;;;;;;5033380;28;19948;-67
2021/12/24 13:07:53;;;;;;;;;;;19.80;52.30;;;;;;5032439;28;19966;-67
2021/12/24 13:10:19;;;;;;;;;;;19.70;52.70;;;;;;5039138;28;20215;-67
2021/12/24 13:12:45;;;;;;;;;;;19.70;52.20;;;;;;5037507;28;19912;-66
2021/12/24 13:15:16;;;;;;;;;;;19.70;52.20;;;;;;5040218;28;19917;-68
2021/12/24 13:17:46;;;;;;;;;;;19.80;52.30;;;;;;5037889;28;19920;-66
2021/12/24 13:20:34;;;;;;;;;;;19.70;52.30;;;;;;5035760;28;19916;-68
2021/12/24 13:23:02;;;;;;;;;;;19.80;52.30;;;;;;5035506;28;19919;-68
2021/12/24 13:25:27;;;;;;;;;;;19.70;52.20;;;;;;5039917;28;19997;-68
2021/12/24 13:27:54;;;;;;;;;;;19.80;52.30;;;;;;5033649;28;19920;-67
2021/12/24 13:30:27;;;;;;;;;;;19.70;52.20;;;;;;5033450;28;19924;-66
2021/12/24 13:32:54;;;;;;;;;;;19.70;52.30;;;;;;5031308;28;19927;-66
2021/12/24 13:35:24;;;;;;;;;;;19.80;52.40;;;;;;5034818;28;19957;-67
2021/12/24 13:37:51;;;;;;;;;;;19.70;52.30;;;;;;5032470;28;20552;-66
2021/12/24 13:40:20;;;;;;;;;;;19.80;52.30;;;;;;5034297;28;20035;-67
2021/12/24 13:42:49;;;;;;;;;;;19.70;52.30;;;;;;5036362;28;19913;-67
2021/12/24 13:45:15;;;;;;;;;;;19.70;52.30;;;;;;5032209;28;19917;-68
2021/12/24 13:55:32;;;;;;;;;;;19.70;52.80;;;;;;5039484;28;20324;-67
2021/12/24 13:57:58;;;;;;;;;;;19.70;52.30;;;;;;5039160;28;20105;-68
2021/12/24 14:00:24;;;;;;;;;;;19.70;52.30;;;;;;5037916;28;19916;-66
2021/12/24 14:02:50;;;;;;;;;;;19.80;52.40;;;;;;5038876;28;19913;-67
2021/12/24 14:05:18;;;;;;;;;;;19.70;52.40;;;;;;5038209;28;19952;-67
2021/12/24 14:07:46;;;;;;;;;;;19.70;52.40;;;;;;5033373;28;20356;-68
2021/12/24 14:10:22;;;;;;;;;;;19.70;52.40;;;;;;5035030;28;19919;-68
2021/12/24 14:12:48;;;;;;;;;;;19.70;52.40;;;;;;5032791;28;20019;-68
2021/12/24 14:15:15;;;;;;;;;;;19.70;52.40;;;;;;5036197;28;20446;-67
2021/12/24 14:21:44;;;;;;;;;;;19.70;52.30;;;;;;5029666;28;19913;-68
2021/12/24 14:23:33;;;;;;;;;;;19.70;52.40;;;;;;5036032;28;19912;-67
2021/12/24 14:25:59;;;;;;;;;;;19.70;52.40;;;;;;5034011;28;19916;-67
2021/12/24 14:28:25;;;;;;;;;;;19.70;52.40;;;;;;5041596;28;19954;-65
2021/12/24 14:30:58;;;;;;;;;;;19.70;52.40;;;;;;5035596;28;20050;-67
2021/12/24 14:33:23;;;;;;;;;;;19.70;52.40;;;;;;5034259;28;19959;-67
2021/12/24 14:35:52;;;;;;;;;;;19.70;52.40;;;;;;5037256;28;19955;-65
2021/12/24 14:38:18;;;;;;;;;;;19.70;52.40;;;;;;5037855;28;19913;-65
2021/12/24 14:40:44;;;;;;;;;;;19.70;52.50;;;;;;5036111;28;19913;-66
2021/12/24 14:43:10;;;;;;;;;;;19.70;52.60;;;;;;5031899;28;19920;-67
2021/12/24 14:45:37;;;;;;;;;;;19.70;52.50;;;;;;5034343;28;19916;-67
2021/12/24 14:48:05;;;;;;;;;;;19.60;52.50;;;;;;5036715;28;19921;-66
2021/12/24 14:50:32;;;;;;;;;;;19.60;52.50;;;;;;5038325;28;20635;-67
2021/12/24 14:53:09;;;;;;;;;;;19.60;52.60;;;;;;5030170;28;20008;-69
2021/12/24 14:55:45;;;;;;;;;;;19.60;52.50;;;;;;5039951;28;19939;-68
2021/12/24 14:58:11;;;;;;;;;;;19.60;52.60;;;;;;5032557;28;19963;-67
2021/12/24 15:00:39;;;;;;;;;;;19.70;52.60;;;;;;5036466;28;19982;-69
2021/12/24 15:03:06;;;;;;;;;;;19.60;52.60;;;;;;5036766;28;19916;-65
2021/12/24 15:05:33;;;;;;;;;;;19.60;52.60;;;;;;5038992;28;19912;-68
2021/12/24 15:08:00;;;;;;;;;;;19.60;52.60;;;;;;5036031;28;19989;-67
2021/12/24 15:10:25;;;;;;;;;;;19.60;52.60;;;;;;5045873;28;20678;-67
2021/12/24 15:12:59;;;;;;;;;;;19.60;52.60;;;;;;5041140;28;20004;-67
2021/12/24 15:15:26;;;;;;;;;;;19.60;52.70;;;;;;5057295;28;20254;-70
2021/12/24 15:17:52;;;;;;;;;;;19.60;52.60;;;;;;5041125;28;19994;-67
2021/12/24 15:20:17;;;;;;;;;;;19.60;52.70;;;;;;5043791;28;20280;-68
2021/12/24 15:22:43;;;;;;;;;;;19.60;52.70;;;;;;5042133;28;19924;-66
2021/12/24 15:25:09;;;;;;;;;;;19.60;52.60;;;;;;5039174;28;19955;-67
2021/12/24 15:27:36;;;;;;;;;;;19.60;52.70;;;;;;5038000;28;19983;-67
2021/12/24 15:30:04;;;;;;;;;;;19.60;52.70;;;;;;5037566;28;20468;-65
2021/12/24 15:32:29;;;;;;;;;;;19.60;52.70;;;;;;5038903;28;19960;-69
2021/12/24 15:34:55;;;;;;;;;;;19.60;52.70;;;;;;5045211;28;19948;-67
2021/12/24 15:37:21;;;;;;;;;;;19.60;52.70;;;;;;5045810;28;19992;-68
2021/12/24 15:39:46;;;;;;;;;;;19.60;52.70;;;;;;5048550;28;19924;-67
2021/12/24 15:42:12;;;;;;;;;;;19.60;52.70;;;;;;5047750;28;19919;-67
2021/12/24 15:44:42;;;;;;;;;;;19.60;52.70;;;;;;5040832;28;20023;-65
2021/12/24 15:47:08;;;;;;;;;;;19.60;52.80;;;;;;5040994;28;19916;-69
2021/12/24 15:49:33;;;;;;;;;;;19.60;52.80;;;;;;5039029;28;20327;-69
2021/12/24 15:51:59;;;;;;;;;;;19.60;52.80;;;;;;5033225;28;19912;-67
2021/12/24 15:54:25;;;;;;;;;;;19.60;52.80;;;;;;5045562;28;19920;-65
2021/12/24 15:56:50;;;;;;;;;;;19.60;52.80;;;;;;5047635;28;20346;-69
2021/12/24 15:59:16;;;;;;;;;;;19.60;52.80;;;;;;5043413;28;19951;-70
2021/12/24 16:01:41;;;;;;;;;;;19.60;52.80;;;;;;5045274;28;19920;-66
2021/12/24 16:04:07;;;;;;;;;;;19.50;52.80;;;;;;5040507;28;19920;-67
2021/12/24 16:06:32;;;;;;;;;;;19.50;52.80;;;;;;5039660;28;19999;-68